createdAt,value
2018-06-16T00:00:23.960Z,100730.23
2018-06-16T00:02:54.124Z,100737.03
2018-06-16T00:05:23.988Z,100735.02
2018-06-16T00:07:54.144Z,100740.91
2018-06-16T00:10:24.015Z,100739.39
2018-06-16T00:12:53.914Z,100743.75
2018-06-16T00:15:23.899Z,100737.97
2018-06-16T00:17:53.763Z,100737.41
2018-06-16T00:20:23.632Z,100738.39
2018-06-16T00:22:53.490Z,100738.73
2018-06-16T00:25:23.672Z,100734.09
2018-06-16T00:27:53.475Z,100739.58
2018-06-16T00:30:23.637Z,100737.44
2018-06-16T00:32:53.438Z,100731.34
2018-06-16T00:35:23.315Z,100733.20
2018-06-16T00:37:53.286Z,100732.80
2018-06-16T00:40:23.548Z,100732.20
2018-06-16T00:42:53.721Z,100730.69
2018-06-16T00:45:23.620Z,100726.02
2018-06-16T00:47:53.605Z,100730.34
2018-06-16T00:50:23.547Z,100727.94
2018-06-16T00:52:53.481Z,100725.01
2018-06-16T00:55:23.776Z,100730.67
2018-06-16T00:57:53.930Z,100727.73
2018-06-16T01:00:23.786Z,100725.44
2018-06-16T01:02:53.663Z,100733.59
2018-06-16T01:05:23.599Z,100725.75
2018-06-16T01:07:53.747Z,100728.92
2018-06-16T01:10:23.791Z,100729.70
2018-06-16T01:12:53.723Z,100736.62
2018-06-16T01:15:23.687Z,100730.77
2018-06-16T01:17:53.605Z,100729.66
2018-06-16T01:20:23.430Z,100734.27
2018-06-16T01:22:53.346Z,100722.05
2018-06-16T01:25:23.359Z,100726.02
2018-06-16T01:27:53.340Z,100724.70
2018-06-16T01:30:23.281Z,100723.15
2018-06-16T01:32:53.149Z,100729.52
2018-06-16T01:35:23.008Z,100723.39
2018-06-16T01:37:53.199Z,100731.79
2018-06-16T01:40:23.080Z,100727.41
2018-06-16T01:42:53.214Z,100729.20
2018-06-16T01:45:23.588Z,100729.67
2018-06-16T01:47:53.559Z,100732.14
2018-06-16T01:50:23.500Z,100727.95
2018-06-16T01:52:53.520Z,100723.48
2018-06-16T01:55:23.630Z,100730.77
2018-06-16T01:57:53.445Z,100735.68
2018-06-16T02:00:24.203Z,100734.80
2018-06-16T02:02:54.170Z,100725.50
2018-06-16T02:05:24.250Z,100724.73
2018-06-16T02:07:54.303Z,100723.98
2018-06-16T02:10:24.364Z,100727.80
2018-06-16T02:12:54.289Z,100722.98
2018-06-16T02:15:24.228Z,100730.45
2018-06-16T02:17:54.332Z,100723.25
2018-06-16T02:20:24.210Z,100727.86
2018-06-16T02:22:54.219Z,100728.55
2018-06-16T02:25:24.056Z,100731.05
2018-06-16T02:27:54.020Z,100728.52
2018-06-16T02:30:23.996Z,100728.27
2018-06-16T02:32:53.895Z,100722.86
2018-06-16T02:35:23.824Z,100714.47
2018-06-16T02:37:53.912Z,100718.30
2018-06-16T02:40:24.202Z,100716.42
2018-06-16T02:42:54.208Z,100722.52
2018-06-16T02:45:24.149Z,100725.00
2018-06-16T02:47:54.053Z,100718.41
2018-06-16T02:50:23.931Z,100717.80
2018-06-16T02:52:54.343Z,100718.65
2018-06-16T02:55:24.463Z,100713.55
2018-06-16T02:57:54.428Z,100715.41
2018-06-16T03:00:24.823Z,100709.27
2018-06-16T03:02:54.703Z,100706.61
2018-06-16T03:05:24.684Z,100707.14
2018-06-16T03:07:54.690Z,100712.19
2018-06-16T03:10:25.169Z,100713.43
2018-06-16T03:12:54.975Z,100715.17
2018-06-16T03:15:24.936Z,100722.92
2018-06-16T03:17:54.943Z,100713.84
2018-06-16T03:20:24.917Z,100714.50
2018-06-16T03:22:54.927Z,100713.67
2018-06-16T03:25:24.919Z,100713.20
2018-06-16T03:27:54.985Z,100720.97
2018-06-16T03:30:24.905Z,100714.06
2018-06-16T03:32:54.893Z,100717.66
2018-06-16T03:35:24.775Z,100716.81
2018-06-16T03:37:54.583Z,100712.39
2018-06-16T03:40:24.498Z,100716.21
2018-06-16T03:42:54.042Z,100716.13
2018-06-16T03:45:23.963Z,100716.78
2018-06-16T03:47:53.905Z,100716.32
2018-06-16T03:50:24.932Z,100710.75
2018-06-16T03:52:54.825Z,100714.72
2018-06-16T03:55:25.035Z,100713.11
2018-06-16T03:57:55.452Z,100709.92
2018-06-16T04:00:25.675Z,100719.30
2018-06-16T04:02:55.639Z,100712.95
2018-06-16T04:05:25.656Z,100711.27
2018-06-16T04:07:55.736Z,100710.55
2018-06-16T04:10:25.751Z,100713.56
2018-06-16T04:12:55.785Z,100716.13
2018-06-16T04:15:25.722Z,100718.73
2018-06-16T04:17:55.693Z,100717.17
2018-06-16T04:20:25.567Z,100715.72
2018-06-16T04:22:55.639Z,100716.39
2018-06-16T04:25:25.528Z,100718.09
2018-06-16T04:27:55.571Z,100711.80
2018-06-16T04:30:25.468Z,100711.59
2018-06-16T04:32:55.695Z,100713.98
2018-06-16T04:35:25.691Z,100710.73
2018-06-16T04:37:55.642Z,100712.14
2018-06-16T04:40:25.526Z,100718.03
2018-06-16T04:42:55.797Z,100716.48
2018-06-16T04:45:25.926Z,100718.34
2018-06-16T04:47:55.848Z,100714.45
2018-06-16T04:50:25.978Z,100716.90
2018-06-16T04:52:55.873Z,100718.48
2018-06-16T04:55:25.798Z,100719.95
2018-06-16T04:57:55.866Z,100718.19
2018-06-16T05:00:25.835Z,100717.26
2018-06-16T05:02:55.715Z,100710.12
2018-06-16T05:05:25.719Z,100712.59
2018-06-16T05:07:55.799Z,100712.84
2018-06-16T05:10:25.710Z,100704.09
2018-06-16T05:12:55.792Z,100701.72
2018-06-16T05:15:25.314Z,100698.48
2018-06-16T05:17:55.417Z,100698.61
2018-06-16T05:20:25.225Z,100700.12
2018-06-16T05:22:55.115Z,100701.30
2018-06-16T05:25:24.711Z,100697.38
2018-06-16T05:27:54.646Z,100700.17
2018-06-16T05:30:24.663Z,100695.05
2018-06-16T05:32:55.086Z,100700.33
2018-06-16T05:35:25.332Z,100701.27
2018-06-16T05:37:54.931Z,100698.64
2018-06-16T05:40:25.006Z,100697.69
2018-06-16T05:42:54.899Z,100695.36
2018-06-16T05:45:24.846Z,100700.52
2018-06-16T05:47:54.856Z,100698.98
2018-06-16T05:50:24.865Z,100700.16
2018-06-16T05:52:54.780Z,100699.20
2018-06-16T05:55:24.257Z,100698.98
2018-06-16T05:57:54.152Z,100704.49
2018-06-16T06:00:24.120Z,100699.91
2018-06-16T06:02:54.175Z,100704.84
2018-06-16T06:05:24.197Z,100700.41
2018-06-16T06:07:54.258Z,100708.23
2018-06-16T06:10:24.284Z,100705.83
2018-06-16T06:12:54.161Z,100707.27
2018-06-16T06:15:24.251Z,100703.53
2018-06-16T06:17:54.015Z,100705.48
2018-06-16T06:20:24.155Z,100705.13
2018-06-16T06:22:54.075Z,100704.06
2018-06-16T06:25:24.032Z,100703.93
2018-06-16T06:27:54.240Z,100704.06
2018-06-16T06:30:55.162Z,100705.13
2018-06-16T06:36:36.995Z,100721.36
2018-06-16T06:39:10.436Z,100724.09
2018-06-16T06:41:40.372Z,100726.28
2018-06-16T06:44:10.472Z,100723.02
2018-06-16T06:46:40.992Z,100726.98
2018-06-16T06:49:10.843Z,100727.81
2018-06-16T06:51:40.808Z,100727.01
2018-06-16T06:54:14.217Z,100728.78
2018-06-16T06:57:03.209Z,100730.97
2018-06-16T06:59:33.839Z,100730.48
2018-06-16T07:02:04.097Z,100730.83
2018-06-16T07:04:34.010Z,100727.34
2018-06-16T07:07:24.546Z,100727.83
2018-06-16T07:10:00.329Z,100729.76
2018-06-16T07:12:56.866Z,100730.11
2018-06-16T07:15:27.078Z,100725.66
2018-06-16T07:27:28.909Z,100727.31
2018-06-16T07:29:58.887Z,100725.24
2018-06-16T07:32:30.348Z,100725.37
2018-06-16T07:35:00.257Z,100721.87
2018-06-16T07:37:31.645Z,100715.87
2018-06-16T07:40:01.554Z,100718.14
2018-06-16T07:42:31.651Z,100723.41
2018-06-16T07:45:02.052Z,100726.27
2018-06-16T07:47:32.367Z,100724.80
2018-06-16T07:50:08.611Z,100726.08
2018-06-16T07:52:39.564Z,100722.08
2018-06-16T07:55:09.707Z,100726.16
2018-06-16T07:57:39.806Z,100717.87
2018-06-16T08:00:09.713Z,100717.91
2018-06-16T08:02:39.669Z,100715.95
2018-06-16T08:05:09.816Z,100713.70
2018-06-16T08:07:39.658Z,100721.11
2018-06-16T08:10:10.548Z,100721.45
2018-06-16T08:12:40.980Z,100718.35
2018-06-16T08:15:10.425Z,100712.71
2018-06-16T08:18:09.002Z,100715.42
2018-06-16T08:20:39.093Z,100715.17
2018-06-16T08:23:11.230Z,100717.77
2018-06-16T08:25:42.048Z,100721.95
2018-06-16T08:31:24.604Z,100722.63
2018-06-16T08:34:16.570Z,100723.80
2018-06-16T08:36:48.535Z,100727.94
2018-06-16T08:39:26.323Z,100733.48
2018-06-16T08:41:56.475Z,100726.27
2018-06-16T08:44:26.722Z,100727.13
2018-06-16T08:46:57.106Z,100730.82
2018-06-16T08:49:27.127Z,100728.31
2018-06-16T08:51:58.584Z,100731.50
2018-06-16T08:54:29.606Z,100722.73
2018-06-16T08:56:59.783Z,100727.28
2018-06-16T08:59:30.585Z,100727.91
2018-06-16T09:02:00.876Z,100724.05
2018-06-16T09:04:31.354Z,100724.48
2018-06-16T09:07:02.888Z,100724.86
2018-06-16T09:09:33.174Z,100725.20
2018-06-16T09:12:03.832Z,100723.77
2018-06-16T09:14:33.887Z,100725.66
2018-06-16T09:17:03.851Z,100723.02
2018-06-16T09:19:34.067Z,100720.67
2018-06-16T09:22:03.955Z,100718.30
2018-06-16T09:24:33.927Z,100719.20
2018-06-16T09:27:03.965Z,100720.43
2018-06-16T09:29:33.923Z,100716.14
2018-06-16T09:32:03.932Z,100726.83
2018-06-16T09:34:33.843Z,100726.25
2018-06-16T09:37:03.800Z,100719.61
2018-06-16T09:42:43.481Z,100720.47
2018-06-16T09:45:15.363Z,100715.58
2018-06-16T09:47:45.483Z,100718.80
2018-06-16T09:50:15.538Z,100722.25
2018-06-16T09:52:45.574Z,100715.01
2018-06-16T09:55:18.569Z,100718.50
2018-06-16T10:00:57.301Z,100718.64
2018-06-16T10:03:27.647Z,100716.41
2018-06-16T10:05:57.727Z,100715.42
2018-06-16T10:08:27.672Z,100712.69
2018-06-16T10:10:57.916Z,100717.98
2018-06-16T10:13:33.058Z,100711.53
2018-06-16T10:18:44.263Z,100717.03
2018-06-16T10:21:23.348Z,100712.88
2018-06-16T10:23:53.676Z,100702.75
2018-06-16T10:26:23.559Z,100701.63
2018-06-16T10:28:54.667Z,100707.92
2018-06-16T10:31:24.629Z,100695.07
2018-06-16T10:33:54.514Z,100686.05
2018-06-16T10:36:29.098Z,100690.80
2018-06-16T10:38:59.048Z,100687.63
2018-06-16T10:41:28.915Z,100684.86
2018-06-16T10:43:58.843Z,100689.06
2018-06-16T10:46:28.678Z,100686.03
2018-06-16T10:48:58.515Z,100684.37
2018-06-16T10:51:28.824Z,100680.22
2018-06-16T10:53:58.677Z,100679.70
2018-06-16T10:56:28.437Z,100681.42
2018-06-16T11:01:57.663Z,100690.29
2018-06-16T11:04:27.617Z,100687.13
2018-06-16T11:06:59.787Z,100686.20
2018-06-16T11:09:30.381Z,100688.00
2018-06-16T11:18:34.545Z,100679.60
2018-06-16T11:21:04.704Z,100677.22
2018-06-16T11:34:39.300Z,100675.94
2018-06-16T11:53:11.113Z,100661.31
2018-06-16T11:56:44.541Z,100656.19
2018-06-16T11:59:25.101Z,100651.86
2018-06-16T12:02:13.917Z,100656.02
2018-06-16T12:10:31.999Z,100646.48
2018-06-16T12:13:01.877Z,100645.14
2018-06-16T12:27:59.815Z,100622.50
2018-06-16T12:44:02.854Z,100598.48
2018-06-16T12:50:07.312Z,100590.49
2018-06-16T12:52:37.591Z,100601.84
2018-06-16T12:55:43.057Z,100602.23
2018-06-16T12:58:29.687Z,100598.83
2018-06-16T13:01:00.110Z,100594.99
2018-06-16T13:03:30.156Z,100600.15
2018-06-16T13:12:00.437Z,100593.81
2018-06-16T13:14:41.210Z,100595.08
2018-06-16T13:45:01.251Z,100589.41
2018-06-16T13:58:45.247Z,100582.92
2018-06-16T14:01:26.467Z,100581.05
2018-06-16T14:39:57.985Z,100540.19
2018-06-16T14:57:27.570Z,100542.75
2018-06-16T14:59:59.020Z,100543.96
2018-06-16T15:02:29.380Z,100547.04
2018-06-16T15:11:28.778Z,100538.91
2018-06-16T15:13:59.325Z,100539.12
2018-06-16T15:22:59.540Z,100542.94
2018-06-16T15:29:00.859Z,100531.61
2018-06-16T15:34:31.358Z,100526.23
2018-06-16T15:47:01.595Z,100516.70
2018-06-16T15:52:29.825Z,100501.32
2018-06-16T16:01:00.321Z,100506.42
2018-06-16T16:03:55.682Z,100503.36
2018-06-16T16:17:30.474Z,100485.97
2018-06-16T16:20:00.891Z,100488.77
2018-06-16T16:37:27.799Z,100477.53
2018-06-16T16:41:01.007Z,100478.75
2018-06-16T16:52:56.837Z,100490.11
2018-06-16T16:58:28.713Z,100503.39
2018-06-16T17:01:26.527Z,100520.87
2018-06-16T17:07:25.546Z,100534.36
2018-06-16T17:18:00.338Z,100581.41
2018-06-16T17:23:59.483Z,100598.52
2018-06-16T17:33:00.051Z,100594.95
2018-06-16T17:35:36.795Z,100597.80
2018-06-16T17:42:28.964Z,100590.07
2018-06-16T17:54:30.288Z,100579.37
2018-06-16T17:57:00.428Z,100579.97
2018-06-16T17:59:31.253Z,100582.36
2018-06-16T18:02:13.644Z,100569.11
2018-06-16T18:04:57.073Z,100579.31
2018-06-16T18:07:28.883Z,100580.77
2018-06-16T18:09:59.773Z,100579.87
2018-06-16T18:16:16.180Z,100580.27
2018-06-16T18:18:59.433Z,100580.57
2018-06-16T18:21:30.480Z,100578.72
2018-06-16T18:24:00.967Z,100572.66
2018-06-16T18:26:33.652Z,100576.28
2018-06-16T18:34:28.384Z,100581.08
2018-06-16T18:43:12.574Z,100589.23
2018-06-16T18:45:42.680Z,100588.61
2018-06-16T18:48:13.679Z,100583.78
2018-06-16T19:02:31.943Z,100600.28
2018-06-16T19:11:10.161Z,100619.36
2018-06-16T19:13:52.519Z,100629.94
2018-06-16T19:19:25.186Z,100654.13
2018-06-16T19:28:24.458Z,100673.38
2018-06-16T19:30:54.594Z,100669.87
2018-06-16T19:33:36.040Z,100666.59
2018-06-16T19:36:07.532Z,100657.83
2018-06-16T19:38:37.371Z,100663.44
2018-06-16T19:41:07.455Z,100650.55
2018-06-16T19:43:37.459Z,100652.38
2018-06-16T19:46:07.626Z,100650.30
2018-06-16T19:48:37.564Z,100653.20
2018-06-16T19:51:11.060Z,100656.64
2018-06-16T19:53:41.425Z,100650.14
2018-06-16T19:56:11.508Z,100657.69
2018-06-16T19:58:42.967Z,100662.20
2018-06-16T20:01:15.693Z,100662.23
2018-06-16T20:03:50.496Z,100665.72
2018-06-16T20:06:26.471Z,100674.21
2018-06-16T20:09:09.599Z,100676.11
2018-06-16T20:11:40.496Z,100680.53
2018-06-16T20:17:12.775Z,100682.37
2018-06-16T20:19:44.867Z,100681.20
2018-06-16T20:22:17.912Z,100685.02
2018-06-16T20:24:53.239Z,100677.31
2018-06-16T20:27:27.648Z,100683.34
2018-06-16T20:29:58.176Z,100693.08
2018-06-16T20:32:28.656Z,100699.42
2018-06-16T20:35:03.921Z,100701.39
2018-06-16T23:40:36.181Z,100740.40
2018-06-16T23:55:43.453Z,100744.99
